createdAt,value
2019-01-12T00:04:35.486Z,7.50
2019-01-12T00:09:50.047Z,6.97
2019-01-12T00:15:06.538Z,7.73
2019-01-12T00:20:21.071Z,8.33
2019-01-12T00:25:35.776Z,6.93
2019-01-12T00:30:50.335Z,6.57
2019-01-12T00:36:05.529Z,4.60
2019-01-12T00:41:20.003Z,6.40
2019-01-12T00:46:34.796Z,5.60
2019-01-12T00:51:49.319Z,6.30
2019-01-12T00:57:04.124Z,5.33
2019-01-12T01:02:19.975Z,6.87
2019-01-12T01:07:34.536Z,4.17
2019-01-12T01:12:48.772Z,6.73
2019-01-12T01:18:03.186Z,6.20
2019-01-12T01:23:19.808Z,5.30
2019-01-12T01:28:39.518Z,4.67
2019-01-12T01:33:53.798Z,7.57
2019-01-12T01:39:09.710Z,6.87
2019-01-12T01:44:24.978Z,6.33
2019-01-12T01:49:41.368Z,6.63
2019-01-12T01:54:55.412Z,5.70
2019-01-12T02:00:16.132Z,5.87
2019-01-12T02:05:31.177Z,7.80
2019-01-12T02:10:45.672Z,5.93
2019-01-12T02:16:00.263Z,5.43
2019-01-12T02:21:15.980Z,6.40
2019-01-12T02:26:31.514Z,6.63
2019-01-12T02:31:46.204Z,5.83
2019-01-12T02:37:00.859Z,6.20
2019-01-12T02:42:15.748Z,7.77
2019-01-12T02:47:30.689Z,6.13
2019-01-12T02:52:45.292Z,7.00
2019-01-12T02:57:59.667Z,6.93
2019-01-12T03:03:14.347Z,6.13
2019-01-12T03:08:29.102Z,6.60
2019-01-12T03:13:43.806Z,6.17
2019-01-12T03:18:58.281Z,6.00
2019-01-12T03:24:13.290Z,6.33
2019-01-12T03:29:29.026Z,6.20
2019-01-12T03:34:43.771Z,5.53
2019-01-12T03:39:58.447Z,5.47
2019-01-12T03:45:14.168Z,5.37
2019-01-12T03:50:28.423Z,5.70
2019-01-12T03:55:44.911Z,6.10
2019-01-12T04:01:00.191Z,4.70
2019-01-12T04:06:17.067Z,5.87
2019-01-12T04:11:31.570Z,5.37
2019-01-12T04:16:46.147Z,5.40
2019-01-12T04:22:00.803Z,6.67
2019-01-12T04:27:15.412Z,6.10
2019-01-12T04:32:30.138Z,5.73
2019-01-12T04:37:44.476Z,6.23
2019-01-12T04:42:59.253Z,6.10
2019-01-12T04:48:13.696Z,3.60
2019-01-12T04:53:28.176Z,5.73
2019-01-12T04:58:44.518Z,5.00
2019-01-12T05:03:58.862Z,4.50
2019-01-12T05:09:13.159Z,3.70
2019-01-12T05:14:27.330Z,3.20
2019-01-12T05:19:42.918Z,5.63
2019-01-12T05:24:57.517Z,5.00
2019-01-12T05:30:14.925Z,6.53
2019-01-12T05:35:29.538Z,4.33
2019-01-12T05:40:43.794Z,3.10
2019-01-12T05:45:58.510Z,3.80
2019-01-12T05:51:13.170Z,4.50
2019-01-12T05:56:30.150Z,3.73
2019-01-12T06:01:45.012Z,3.53
2019-01-12T06:06:59.763Z,3.93
2019-01-12T06:12:14.242Z,4.53
2019-01-12T06:17:29.481Z,5.30
2019-01-12T06:22:45.953Z,4.70
2019-01-12T06:28:00.226Z,5.10
2019-01-12T06:33:14.994Z,3.77
2019-01-12T06:38:29.916Z,4.60
2019-01-12T06:43:44.489Z,3.87
2019-01-12T06:48:59.188Z,3.97
2019-01-12T06:54:14.201Z,4.20
2019-01-12T06:59:31.146Z,4.53
2019-01-12T07:04:45.873Z,3.83
2019-01-12T07:10:00.581Z,2.93
2019-01-12T07:15:18.181Z,5.43
2019-01-12T07:20:32.918Z,5.07
2019-01-12T07:25:47.250Z,2.73
2019-01-12T07:31:04.076Z,4.03
2019-01-12T07:36:18.451Z,2.63
2019-01-12T07:41:33.077Z,3.03
2019-01-12T07:46:47.537Z,4.17
2019-01-12T07:52:01.936Z,2.50
2019-01-12T07:57:16.478Z,4.33
2019-01-12T08:02:32.528Z,4.90
2019-01-12T08:07:46.785Z,4.73
2019-01-12T08:13:01.592Z,3.00
2019-01-12T08:18:16.262Z,4.77
2019-01-12T08:23:30.848Z,3.57
2019-01-12T08:28:45.557Z,4.80
2019-01-12T08:34:00.214Z,2.57
2019-01-12T08:39:14.547Z,3.50
2019-01-12T08:44:29.577Z,2.87
2019-01-12T08:49:44.559Z,3.57
2019-01-12T08:55:00.674Z,3.10
2019-01-12T09:00:18.621Z,4.57
2019-01-12T09:05:36.176Z,3.67
2019-01-12T09:10:51.078Z,3.90
2019-01-12T09:16:08.644Z,3.67
2019-01-12T09:21:23.299Z,4.60
2019-01-12T09:26:44.732Z,3.47
2019-01-12T09:31:57.699Z,4.20
2019-01-12T09:37:13.122Z,4.67
2019-01-12T09:42:27.311Z,3.73
2019-01-12T09:47:41.844Z,2.60
2019-01-12T09:52:56.299Z,5.27
2019-01-12T09:58:10.967Z,3.93
2019-01-12T10:03:25.680Z,2.63
2019-01-12T10:08:40.000Z,4.00
2019-01-12T10:13:54.051Z,3.90
2019-01-12T10:19:08.618Z,2.33
2019-01-12T10:24:23.653Z,4.07
2019-01-12T10:29:37.870Z,5.83
2019-01-12T10:34:52.364Z,4.20
2019-01-12T10:40:08.350Z,3.87
2019-01-12T10:45:24.593Z,4.80
2019-01-12T10:50:40.031Z,4.57
2019-01-12T10:55:56.923Z,3.10
2019-01-12T11:01:11.178Z,5.67
2019-01-12T11:06:25.572Z,6.53
2019-01-12T11:11:40.011Z,5.63
2019-01-12T11:16:55.086Z,7.00
2019-01-12T11:22:09.473Z,5.40
2019-01-12T11:27:26.199Z,5.10
2019-01-12T11:32:40.730Z,5.47
2019-01-12T11:37:55.603Z,5.73
2019-01-12T11:43:10.182Z,6.17
2019-01-12T11:48:24.657Z,4.50
2019-01-12T11:53:39.463Z,4.80
2019-01-12T11:58:56.112Z,3.77
2019-01-12T12:04:10.347Z,5.20
2019-01-12T12:09:24.728Z,4.50
2019-01-12T12:14:39.801Z,3.57
2019-01-12T12:19:54.623Z,4.23
2019-01-12T12:25:09.280Z,5.13
2019-01-12T12:30:32.983Z,4.77
2019-01-12T12:35:47.426Z,4.00
2019-01-12T12:41:01.901Z,6.23
2019-01-12T12:46:16.247Z,4.83
2019-01-12T12:51:31.690Z,5.40
2019-01-12T12:56:46.170Z,5.97
2019-01-12T13:02:01.313Z,4.10
2019-01-12T13:07:19.251Z,2.47
2019-01-12T13:12:33.910Z,7.40
2019-01-12T13:17:48.575Z,5.27
2019-01-12T13:23:02.999Z,4.70
2019-01-12T13:28:17.616Z,6.63
2019-01-12T13:33:32.368Z,5.80
2019-01-12T13:38:48.109Z,5.97
2019-01-12T13:44:02.811Z,4.67
2019-01-12T13:49:17.477Z,4.97
2019-01-12T13:54:32.085Z,4.20
2019-01-12T13:59:49.204Z,3.50
2019-01-12T14:05:04.971Z,4.27
2019-01-12T14:10:20.390Z,3.37
2019-01-12T14:16:07.317Z,3.67
2019-01-12T14:21:21.816Z,5.07
2019-01-12T14:26:55.373Z,3.90
2019-01-12T14:32:09.687Z,5.67
2019-01-12T14:37:24.232Z,3.37
2019-01-12T14:42:38.599Z,2.73
2019-01-12T14:47:54.518Z,3.97
2019-01-12T14:53:09.211Z,3.10
2019-01-12T14:58:23.554Z,3.73
2019-01-12T15:03:40.920Z,5.30
2019-01-12T15:08:55.019Z,2.63
2019-01-12T15:14:09.300Z,4.17
2019-01-12T15:19:23.258Z,3.60
2019-01-12T15:24:37.924Z,3.53
2019-01-12T15:29:52.125Z,4.07
2019-01-12T15:35:10.032Z,4.50
2019-01-12T15:40:24.824Z,3.97
2019-01-12T15:45:41.654Z,3.90
2019-01-12T15:50:56.106Z,2.47
2019-01-12T15:56:10.705Z,2.73
2019-01-12T16:01:25.052Z,3.73
2019-01-12T16:06:39.582Z,2.77
2019-01-12T16:11:54.358Z,3.40
2019-01-12T16:17:10.040Z,2.53
2019-01-12T16:22:24.378Z,1.73
2019-01-12T16:27:42.289Z,3.20
2019-01-12T16:32:56.693Z,2.53
2019-01-12T16:38:11.499Z,2.00
2019-01-12T16:43:25.810Z,1.83
2019-01-12T16:48:40.248Z,3.07
2019-01-12T16:53:54.766Z,2.40
2019-01-12T16:59:09.180Z,3.27
2019-01-12T17:04:23.343Z,3.47
2019-01-12T17:09:38.300Z,3.87
2019-01-12T17:14:52.679Z,3.87
2019-01-12T17:20:08.779Z,4.37
2019-01-12T17:25:23.241Z,3.37
2019-01-12T17:30:39.686Z,3.27
2019-01-12T17:35:55.622Z,3.40
2019-01-12T17:41:10.368Z,2.47
2019-01-12T17:46:43.575Z,2.70
2019-01-12T17:52:00.518Z,2.30
2019-01-12T17:57:17.028Z,3.10
2019-01-12T18:02:43.771Z,2.30
2019-01-12T18:07:58.593Z,2.90
2019-01-12T18:13:13.314Z,2.33
2019-01-12T18:18:27.868Z,1.70
2019-01-12T18:23:42.554Z,2.40
2019-01-12T18:28:57.112Z,2.17
2019-01-12T18:34:11.715Z,2.57
2019-01-12T18:39:26.697Z,2.10
2019-01-12T18:44:41.646Z,2.37
2019-01-12T18:49:56.300Z,2.80
2019-01-12T19:05:47.314Z,4.13
2019-01-12T19:11:02.238Z,2.23
2019-01-12T19:16:19.052Z,3.63
2019-01-12T19:21:34.554Z,3.10
2019-01-12T19:26:50.380Z,2.60
2019-01-12T19:32:06.569Z,1.87
2019-01-12T19:37:22.434Z,2.83
2019-01-12T19:42:37.824Z,3.43
2019-01-12T19:47:57.453Z,2.47
2019-01-12T19:53:12.909Z,2.40
2019-01-12T19:58:27.396Z,2.70
2019-01-12T20:03:45.250Z,2.93
2019-01-12T20:08:59.849Z,2.33
2019-01-12T20:14:14.974Z,2.13
2019-01-12T20:19:29.610Z,2.37
2019-01-12T20:24:45.948Z,2.50
2019-01-12T20:30:00.049Z,1.80
2019-01-12T20:35:51.035Z,2.27
2019-01-12T20:41:54.665Z,2.17
2019-01-12T20:47:59.562Z,2.93
2019-01-12T20:54:00.502Z,2.50
2019-01-12T20:59:43.261Z,2.07
2019-01-12T21:05:18.340Z,3.17
2019-01-12T21:11:12.392Z,2.30
2019-01-12T21:16:39.776Z,2.67
2019-01-12T21:21:56.173Z,1.87
2019-01-12T21:27:15.560Z,1.97
2019-01-12T21:32:31.718Z,2.27
2019-01-12T21:37:46.839Z,2.20
2019-01-12T21:43:01.790Z,2.20
2019-01-12T21:48:16.351Z,1.83
2019-01-12T21:53:42.723Z,5.17
2019-01-12T21:58:57.739Z,2.30
2019-01-12T22:04:12.345Z,2.17
2019-01-12T22:09:27.393Z,4.17
2019-01-12T22:14:42.631Z,2.50
2019-01-12T22:19:57.144Z,2.27
2019-01-12T22:25:12.628Z,2.20
2019-01-12T22:30:26.899Z,2.23
2019-01-12T22:35:42.029Z,2.43
2019-01-12T22:40:56.625Z,2.10
2019-01-12T22:46:11.303Z,2.23
2019-01-12T22:51:44.947Z,1.97
2019-01-12T22:57:00.021Z,1.70
2019-01-12T23:02:18.753Z,2.07
2019-01-12T23:07:33.760Z,2.80
2019-01-12T23:12:48.471Z,2.30
2019-01-12T23:18:03.389Z,1.80
2019-01-12T23:23:18.541Z,2.27
2019-01-12T23:28:34.494Z,1.30
2019-01-12T23:33:49.227Z,2.50
2019-01-12T23:39:08.931Z,2.47
2019-01-12T23:44:23.808Z,2.07
2019-01-12T23:49:38.086Z,1.73
2019-01-12T23:54:52.846Z,1.20
